Time;durP1;ratioP1;P1;durP2;ratioP2;P2;SDS_P1;SDS_P2;PMS_P1;PMS_P2;Temp;Humidity;BMP_temperature;BMP_pressure;BME280_temperature;BME280_humidity;BME280_pressure;Samples;Min_cycle;Max_cycle;Signal;HPM_P1;HPM_P2
2022/05/13 00:01:39;;;;;;;3.15;1.00;;;32.10;12.30;;;;;;5025481;28;20058;-63
2022/05/13 00:04:06;;;;;;;10.05;1.52;;;32.00;12.10;;;;;;5033766;28;20051;-64
2022/05/13 00:06:32;;;;;;;6.63;1.08;;;31.80;12.20;;;;;;5030466;28;20057;-63
2022/05/13 00:08:59;;;;;;;8.98;1.38;;;31.90;11.90;;;;;;5024832;28;20069;-62
2022/05/13 00:11:25;;;;;;;10.18;1.33;;;31.90;12.00;;;;;;5030408;28;20403;-64
2022/05/13 00:13:51;;;;;;;8.70;1.50;;;31.80;11.50;;;;;;5041931;28;20047;-62
2022/05/13 00:16:18;;;;;;;6.70;1.20;;;31.80;12.40;;;;;;5032206;28;20036;-64
2022/05/13 00:18:45;;;;;;;8.50;1.20;;;31.70;12.60;;;;;;5031452;28;20072;-64
2022/05/13 00:21:11;;;;;;;7.18;1.35;;;31.70;12.00;;;;;;5031733;28;20503;-65
2022/05/13 00:23:38;;;;;;;3.17;1.15;;;31.60;11.70;;;;;;5030277;28;20077;-65
2022/05/13 00:26:04;;;;;;;5.15;1.10;;;31.50;11.80;;;;;;5031235;28;20052;-69
2022/05/13 00:28:31;;;;;;;7.95;1.35;;;31.30;12.00;;;;;;5034143;28;20077;-67
2022/05/13 00:30:59;;;;;;;6.05;1.27;;;31.20;12.00;;;;;;5036040;28;20055;-65
2022/05/13 00:33:26;;;;;;;3.25;1.02;;;31.20;12.00;;;;;;5031326;28;20501;-64
2022/05/13 00:35:53;;;;;;;7.82;1.52;;;31.20;12.00;;;;;;5029242;28;20078;-66
2022/05/13 00:38:20;;;;;;;7.30;1.20;;;31.10;12.00;;;;;;5031917;28;20052;-65
2022/05/13 00:40:47;;;;;;;10.07;1.20;;;31.10;12.00;;;;;;5032270;28;20072;-64
2022/05/13 00:43:14;;;;;;;5.72;1.23;;;31.10;11.90;;;;;;5038663;28;20546;-65
2022/05/13 00:45:41;;;;;;;12.18;1.63;;;31.00;12.70;;;;;;5036050;28;20165;-65
2022/05/13 00:48:08;;;;;;;7.78;0.93;;;30.90;13.00;;;;;;5034836;28;20068;-64
2022/05/13 00:50:39;;;;;;;7.30;1.20;;;30.90;12.80;;;;;;5032104;28;20049;-67
2022/05/13 00:53:05;;;;;;;8.63;1.27;;;30.80;12.00;;;;;;5031940;28;20509;-67
2022/05/13 00:55:40;;;;;;;4.90;1.45;;;30.80;11.60;;;;;;5031193;28;20071;-64
2022/05/13 00:58:10;;;;;;;9.85;1.30;;;30.70;11.50;;;;;;5034220;28;20501;-65
2022/05/13 01:00:37;;;;;;;9.70;1.42;;;30.70;11.80;;;;;;5032816;28;20405;-65
2022/05/13 01:03:06;;;;;;;5.95;1.40;;;30.70;12.10;;;;;;5035683;28;20415;-66
2022/05/13 01:05:34;;;;;;;6.43;1.23;;;30.70;11.90;;;;;;5033750;28;20471;-65
2022/05/13 01:08:06;;;;;;;32.45;2.30;;;30.70;12.00;;;;;;5029063;28;20073;-65
2022/05/13 01:10:34;;;;;;;28.98;2.65;;;30.60;12.10;;;;;;5026566;28;20071;-66
2022/05/13 01:13:07;;;;;;;7.55;1.40;;;30.50;11.90;;;;;;5026958;28;20602;-65
2022/05/13 01:15:39;;;;;;;21.98;2.22;;;30.40;11.60;;;;;;5033448;28;20432;-63
2022/05/13 01:18:06;;;;;;;9.90;0.90;;;30.20;11.90;;;;;;5037331;28;20163;-67
2022/05/13 01:20:48;;;;;;;88.82;6.38;;;30.20;12.00;;;;;;5029945;28;20046;-67
2022/05/13 01:23:35;;;;;;;54.47;3.97;;;30.00;12.50;;;;;;5032053;28;20043;-67
2022/05/13 01:26:06;;;;;;;24.20;1.77;;;30.00;12.30;;;;;;5031360;28;20091;-65
2022/05/13 01:28:39;;;;;;;7.20;1.10;;;30.00;12.30;;;;;;5034622;28;20073;-68
2022/05/13 01:31:09;;;;;;;5.65;0.98;;;29.90;12.40;;;;;;5037202;28;20470;-68
2022/05/13 01:33:39;;;;;;;8.43;1.35;;;29.80;13.10;;;;;;5032629;28;20601;-69
2022/05/13 01:36:09;;;;;;;3.22;1.23;;;29.70;12.10;;;;;;5030434;28;20062;-68
2022/05/13 01:38:38;;;;;;;5.95;1.20;;;29.70;12.10;;;;;;5030523;28;20150;-69
2022/05/13 01:41:06;;;;;;;13.85;2.03;;;29.50;12.10;;;;;;5031139;28;20609;-67
2022/05/13 01:43:34;;;;;;;4.90;1.05;;;29.30;11.80;;;;;;5060149;28;20095;-68
2022/05/13 01:46:00;;;;;;;3.65;1.00;;;29.40;12.10;;;;;;5030756;28;20649;-70
2022/05/13 01:48:28;;;;;;;6.05;0.90;;;29.50;12.10;;;;;;5034874;28;20075;-68
2022/05/13 01:50:55;;;;;;;7.15;0.95;;;29.50;12.00;;;;;;5019938;28;20053;-70
2022/05/13 01:53:22;;;;;;;5.82;1.00;;;29.60;12.00;;;;;;5035023;28;20049;-68
2022/05/13 01:55:49;;;;;;;11.00;1.30;;;29.60;12.10;;;;;;5039506;28;20091;-67
2022/05/13 01:58:17;;;;;;;3.47;0.80;;;29.50;12.00;;;;;;5043018;28;20049;-68
2022/05/13 02:00:46;;;;;;;5.30;0.98;;;29.40;11.80;;;;;;5029591;28;20079;-68
2022/05/13 02:05:58;;;;;;;3.53;1.20;;;29.00;12.00;;;;;;5032770;28;20206;-67
2022/05/13 02:08:25;;;;;;;8.90;1.10;;;28.70;12.80;;;;;;5026421;28;20086;-67
2022/05/13 02:10:52;;;;;;;7.28;1.52;;;28.50;12.70;;;;;;5036793;28;20632;-69
2022/05/13 02:13:19;;;;;;;8.05;1.40;;;28.30;12.50;;;;;;5030856;28;20047;-69
2022/05/13 02:15:46;;;;;;;7.10;1.10;;;28.10;12.70;;;;;;5030218;28;20509;-66
2022/05/13 02:18:12;;;;;;;5.57;1.20;;;28.10;12.70;;;;;;5032134;28;20093;-69
2022/05/13 02:20:40;;;;;;;30.63;22.98;;;28.00;13.40;;;;;;5034558;28;20198;-65
2022/05/13 02:23:07;;;;;;;95.95;79.78;;;27.80;13.70;;;;;;5034412;28;20098;-67
2022/05/13 02:25:34;;;;;;;142.80;122.35;;;27.70;14.20;;;;;;5033450;28;20080;-69
2022/05/13 02:28:01;;;;;;;11.05;2.60;;;27.60;13.80;;;;;;5052609;28;20080;-71
2022/05/13 02:30:29;;;;;;;5.43;1.58;;;27.50;13.10;;;;;;5036237;28;20107;-67
2022/05/13 02:32:56;;;;;;;7.13;1.45;;;27.40;13.30;;;;;;5033144;28;20065;-68
2022/05/13 02:35:24;;;;;;;9.20;1.80;;;27.30;13.70;;;;;;5032194;28;20106;-67
2022/05/13 02:37:50;;;;;;;9.55;1.40;;;27.10;13.60;;;;;;5034865;28;20067;-65
2022/05/13 02:40:18;;;;;;;9.25;1.65;;;27.00;14.00;;;;;;5033723;28;20069;-65
2022/05/13 02:42:45;;;;;;;10.63;1.58;;;26.90;13.90;;;;;;5047908;28;20067;-66
2022/05/13 02:45:13;;;;;;;11.35;1.77;;;26.80;14.00;;;;;;5038286;28;20089;-65
2022/05/13 02:47:40;;;;;;;14.93;2.13;;;26.70;14.20;;;;;;5037937;28;20072;-64
2022/05/13 02:50:17;;;;;;;14.65;1.70;;;26.60;14.20;;;;;;5032920;28;20168;-65
2022/05/13 02:52:44;;;;;;;11.95;2.00;;;26.50;14.50;;;;;;5036354;28;20077;-65
2022/05/13 02:55:11;;;;;;;44.92;7.13;;;26.40;15.10;;;;;;5029263;28;20511;-67
2022/05/13 02:57:38;;;;;;;101.13;9.13;;;26.30;15.80;;;;;;5035907;28;20061;-68
2022/05/13 03:00:06;;;;;;;98.57;8.77;;;26.20;16.40;;;;;;5015430;28;20082;-65
2022/05/13 03:02:33;;;;;;;92.45;8.40;;;26.20;16.50;;;;;;5035318;28;20073;-66
2022/05/13 03:04:59;;;;;;;81.32;7.88;;;26.10;16.60;;;;;;5034786;28;20049;-67
2022/05/13 03:07:26;;;;;;;61.50;6.07;;;26.00;16.70;;;;;;5035076;28;20059;-68
2022/05/13 03:09:52;;;;;;;54.30;6.80;;;25.90;16.80;;;;;;5032641;28;20090;-67
2022/05/13 03:12:19;;;;;;;66.85;6.28;;;25.80;16.80;;;;;;5032670;28;20074;-67
2022/05/13 03:14:45;;;;;;;60.65;5.55;;;25.70;16.80;;;;;;5036118;28;20078;-66
2022/05/13 03:17:11;;;;;;;54.45;5.43;;;25.60;17.00;;;;;;5033530;28;20066;-66
2022/05/13 03:19:39;;;;;;;42.28;5.32;;;25.50;17.00;;;;;;5015947;28;20165;-66
2022/05/13 03:22:06;;;;;;;47.17;5.30;;;25.40;17.10;;;;;;5034268;28;20075;-67
2022/05/13 03:24:33;;;;;;;45.03;5.38;;;25.30;17.50;;;;;;5021907;28;20086;-67
2022/05/13 03:27:00;;;;;;;37.78;4.85;;;25.20;17.30;;;;;;5027674;28;20121;-67
2022/05/13 03:29:28;;;;;;;51.90;4.90;;;25.10;17.40;;;;;;5032581;28;20113;-67
2022/05/13 03:31:54;;;;;;;50.17;5.45;;;25.10;17.50;;;;;;5037599;28;21602;-67
2022/05/13 03:34:21;;;;;;;44.97;5.22;;;25.00;17.40;;;;;;5032789;28;20078;-65
2022/05/13 03:36:51;;;;;;;39.38;4.95;;;24.90;17.60;;;;;;5040935;28;20396;-68
2022/05/13 03:39:18;;;;;;;32.80;4.20;;;24.90;17.60;;;;;;5039894;28;20098;-65
2022/05/13 03:41:44;;;;;;;40.42;4.82;;;24.80;17.60;;;;;;5034208;28;20083;-67
2022/05/13 03:44:11;;;;;;;43.60;4.47;;;24.70;17.70;;;;;;5033579;28;20082;-66
2022/05/13 03:46:37;;;;;;;44.40;4.55;;;24.60;18.10;;;;;;5029605;28;20072;-66
2022/05/13 03:49:03;;;;;;;35.30;4.28;;;24.60;18.10;;;;;;5032745;28;20102;-66
2022/05/13 03:51:30;;;;;;;25.52;3.75;;;24.50;18.00;;;;;;5034687;28;20056;-66
2022/05/13 03:53:56;;;;;;;31.15;4.35;;;24.40;18.00;;;;;;5025753;28;20107;-67
2022/05/13 03:56:23;;;;;;;25.83;4.53;;;24.40;18.30;;;;;;5032979;28;20065;-67
2022/05/13 03:58:49;;;;;;;35.13;5.55;;;24.30;18.60;;;;;;5039183;28;20078;-69
2022/05/13 04:01:16;;;;;;;34.40;4.88;;;24.30;19.20;;;;;;5041437;28;20163;-68
2022/05/13 04:03:42;;;;;;;28.70;4.63;;;24.30;19.40;;;;;;5029771;28;20076;-67
2022/05/13 04:08:56;;;;;;;57.25;5.90;;;24.10;19.30;;;;;;5038624;28;20178;-67
2022/05/13 04:11:23;;;;;;;51.10;5.35;;;24.10;19.20;;;;;;5032326;28;20451;-66
2022/05/13 04:16:35;;;;;;;38.85;6.20;;;23.90;19.30;;;;;;5032835;28;20134;-67
2022/05/13 04:19:04;;;;;;;43.35;6.18;;;23.90;19.60;;;;;;5032251;28;20091;-66
2022/05/13 04:21:34;;;;;;;45.28;6.60;;;23.90;20.00;;;;;;5035641;28;20118;-67
2022/05/13 04:24:04;;;;;;;44.85;6.95;;;23.80;20.10;;;;;;5029768;28;20086;-68
2022/05/13 04:26:31;;;;;;;44.38;6.30;;;23.70;19.90;;;;;;5031235;28;20076;-67
2022/05/13 04:28:58;;;;;;;41.08;7.32;;;23.70;19.80;;;;;;5032300;28;20199;-68
2022/05/13 04:31:29;;;;;;;54.15;8.55;;;23.60;19.80;;;;;;5041687;28;20526;-67
2022/05/13 04:33:56;;;;;;;65.80;8.25;;;23.60;20.00;;;;;;5034971;28;20078;-66
2022/05/13 04:36:23;;;;;;;61.97;8.50;;;23.60;20.40;;;;;;5038044;28;20151;-67
2022/05/13 04:38:51;;;;;;;63.20;8.50;;;23.50;20.50;;;;;;5030783;28;20175;-68
2022/05/13 04:44:04;;;;;;;85.35;10.18;;;23.40;20.00;;;;;;5035817;28;20115;-69
2022/05/13 04:46:34;;;;;;;66.05;10.85;;;23.40;20.40;;;;;;5017721;28;20150;-68
2022/05/13 04:49:00;;;;;;;87.03;10.45;;;23.30;20.10;;;;;;5031640;28;20173;-66
2022/05/13 04:51:27;;;;;;;62.58;11.88;;;23.30;20.10;;;;;;5032161;28;20069;-69
2022/05/13 04:53:55;;;;;;;55.92;10.10;;;23.20;20.20;;;;;;5022451;28;20590;-66
2022/05/13 04:56:23;;;;;;;49.50;7.97;;;23.20;20.40;;;;;;5034506;28;20894;-66
2022/05/13 04:58:49;;;;;;;51.90;9.43;;;23.20;20.60;;;;;;5031716;28;20084;-67
2022/05/13 05:01:17;;;;;;;58.33;9.13;;;23.10;20.70;;;;;;5028799;28;20081;-68
2022/05/13 05:03:45;;;;;;;53.80;9.95;;;23.00;21.10;;;;;;5034642;28;20085;-66
2022/05/13 05:06:13;;;;;;;64.57;9.25;;;23.00;21.20;;;;;;5031267;28;20170;-66
2022/05/13 05:08:40;;;;;;;55.20;10.75;;;23.00;21.20;;;;;;5031656;28;20539;-63
2022/05/13 05:11:08;;;;;;;65.75;10.27;;;23.00;21.30;;;;;;5022767;28;20080;-65
2022/05/13 05:13:42;;;;;;;62.42;9.27;;;22.90;21.40;;;;;;5031646;28;20104;-68
2022/05/13 05:16:09;;;;;;;65.30;10.63;;;22.90;21.80;;;;;;5032800;28;20448;-66
2022/05/13 05:18:37;;;;;;;57.63;9.65;;;22.80;21.60;;;;;;5033102;28;20092;-65
2022/05/13 05:21:05;;;;;;;67.10;10.25;;;22.70;21.60;;;;;;5031426;28;21026;-64
2022/05/13 05:23:34;;;;;;;52.17;10.13;;;22.70;21.80;;;;;;5030587;28;20109;-65
2022/05/13 05:26:01;;;;;;;69.55;12.27;;;22.60;22.10;;;;;;5028982;28;20084;-64
2022/05/13 05:28:28;;;;;;;61.13;10.45;;;22.60;22.40;;;;;;5030077;28;20586;-66
2022/05/13 05:30:56;;;;;;;74.07;11.15;;;22.50;22.50;;;;;;5036363;28;20077;-66
2022/05/13 05:33:23;;;;;;;62.85;11.60;;;22.50;22.60;;;;;;5031980;28;20077;-66
2022/05/13 05:35:50;;;;;;;77.75;10.77;;;22.50;22.60;;;;;;5029913;28;20605;-65
2022/05/13 05:38:16;;;;;;;78.47;10.93;;;22.40;22.60;;;;;;5036532;28;20079;-66
2022/05/13 05:40:43;;;;;;;71.35;11.90;;;22.30;22.60;;;;;;5043539;28;20530;-66
2022/05/13 05:43:13;;;;;;;65.72;11.77;;;22.30;23.20;;;;;;5032895;28;20093;-66
2022/05/13 05:45:40;;;;;;;63.33;10.77;;;22.30;23.10;;;;;;5032077;28;20072;-66
2022/05/13 05:48:09;;;;;;;68.72;11.43;;;22.20;23.20;;;;;;5035334;28;20084;-65
2022/05/13 05:50:35;;;;;;;63.83;11.70;;;22.20;23.30;;;;;;5036844;28;20087;-69
2022/05/13 05:53:02;;;;;;;75.72;12.77;;;22.20;23.40;;;;;;5030933;28;20092;-66
2022/05/13 05:58:15;;;;;;;139.18;66.72;;;22.10;23.70;;;;;;5036559;28;20104;-66
2022/05/13 06:00:45;;;;;;;79.70;22.50;;;22.10;24.10;;;;;;5041786;28;20073;-66
2022/05/13 06:03:12;;;;;;;73.72;14.93;;;22.10;24.00;;;;;;5035188;28;20609;-65
2022/05/13 06:05:39;;;;;;;93.68;14.07;;;22.10;23.70;;;;;;5033284;28;20131;-67
2022/05/13 06:08:06;;;;;;;79.75;13.35;;;22.00;23.70;;;;;;5036194;28;20477;-66
2022/05/13 06:10:35;;;;;;;69.60;13.55;;;22.00;23.50;;;;;;5038672;28;20072;-66
2022/05/13 06:13:02;;;;;;;80.57;12.10;;;21.90;23.30;;;;;;5030753;28;20115;-67
2022/05/13 06:15:29;;;;;;;74.28;12.77;;;21.80;23.10;;;;;;5013903;28;20190;-67
2022/05/13 06:17:56;;;;;;;79.22;12.32;;;21.80;23.40;;;;;;5034598;28;20167;-66
2022/05/13 06:20:28;;;;;;;71.88;11.98;;;21.80;23.30;;;;;;5035859;28;20076;-68
2022/05/13 06:22:55;;;;;;;113.72;13.30;;;21.70;23.30;;;;;;5034246;28;20191;-68
2022/05/13 06:25:22;;;;;;;126.75;15.63;;;21.70;23.30;;;;;;5034890;28;20073;-68
2022/05/13 06:27:50;;;;;;;90.80;13.48;;;21.70;23.50;;;;;;5034495;28;20606;-67
2022/05/13 06:30:27;;;;;;;85.28;12.73;;;21.60;23.60;;;;;;5030674;28;20093;-64
2022/05/13 06:32:54;;;;;;;84.95;17.05;;;21.60;23.80;;;;;;5034616;28;20463;-66
2022/05/13 06:35:22;;;;;;;74.07;14.88;;;22.10;24.40;;;;;;5033321;28;20536;-66
2022/05/13 06:37:48;;;;;;;71.93;13.18;;;22.60;23.90;;;;;;5032406;28;20073;-66
2022/05/13 06:40:15;;;;;;;90.82;13.40;;;23.10;23.60;;;;;;5035016;28;20080;-68
2022/05/13 06:42:42;;;;;;;83.50;13.73;;;23.40;23.20;;;;;;5033765;28;20075;-66
2022/05/13 06:45:08;;;;;;;74.55;13.75;;;23.50;22.90;;;;;;5037143;28;20080;-67
2022/05/13 06:47:36;;;;;;;82.25;13.30;;;23.70;22.80;;;;;;5031384;28;20073;-64
2022/05/13 06:50:06;;;;;;;83.75;13.30;;;23.70;22.70;;;;;;5037064;28;20628;-65
2022/05/13 06:52:33;;;;;;;74.97;13.52;;;23.70;22.90;;;;;;5036142;28;21551;-65
2022/05/13 06:54:59;;;;;;;79.15;13.05;;;23.70;22.70;;;;;;5038096;28;20129;-65
2022/05/13 06:57:26;;;;;;;70.00;13.00;;;23.70;23.00;;;;;;5036573;28;20111;-64
2022/05/13 06:59:52;;;;;;;84.38;13.52;;;23.70;23.00;;;;;;5034314;28;20076;-65
2022/05/13 07:02:19;;;;;;;60.92;12.43;;;23.70;23.20;;;;;;5033624;28;20072;-63
2022/05/13 07:04:46;;;;;;;75.00;13.18;;;23.70;23.30;;;;;;5037525;28;20182;-64
2022/05/13 07:07:13;;;;;;;70.05;12.27;;;23.70;23.60;;;;;;5030801;28;20119;-65
2022/05/13 07:09:40;;;;;;;91.40;13.32;;;23.70;23.10;;;;;;5036238;28;20123;-65
2022/05/13 07:12:09;;;;;;;71.00;13.88;;;23.60;23.10;;;;;;5046010;28;20080;-63
2022/05/13 07:14:36;;;;;;;68.28;12.57;;;23.60;23.60;;;;;;5020364;28;20087;-66
2022/05/13 07:17:04;;;;;;;72.90;13.85;;;23.60;23.80;;;;;;5034191;28;20819;-67
2022/05/13 07:19:31;;;;;;;62.00;13.57;;;23.40;24.10;;;;;;5033402;28;20069;-64
2022/05/13 07:21:59;;;;;;;64.35;14.18;;;23.40;23.80;;;;;;5034380;28;20149;-66
2022/05/13 07:24:25;;;;;;;81.35;14.48;;;23.50;23.80;;;;;;5032911;28;20068;-65
2022/05/13 07:26:51;;;;;;;71.20;14.55;;;23.40;23.60;;;;;;5034427;28;20063;-65
2022/05/13 07:29:18;;;;;;;69.25;14.20;;;23.40;23.70;;;;;;5033543;28;20108;-65
2022/05/13 07:31:44;;;;;;;67.28;14.65;;;23.30;23.60;;;;;;5033311;28;20075;-65
2022/05/13 07:34:11;;;;;;;79.45;14.60;;;23.20;23.80;;;;;;5035298;28;20072;-66
2022/05/13 07:36:37;;;;;;;76.05;15.65;;;23.10;23.80;;;;;;5031224;28;20592;-65
2022/05/13 07:41:49;;;;;;;70.10;15.60;;;23.00;24.70;;;;;;5038616;28;20079;-65
2022/05/13 07:44:16;;;;;;;83.95;16.73;;;22.80;24.80;;;;;;5017784;28;20069;-64
2022/05/13 07:46:43;;;;;;;79.45;15.40;;;22.80;25.20;;;;;;5033254;28;20073;-64
2022/05/13 07:49:11;;;;;;;94.93;16.92;;;22.90;25.60;;;;;;5032023;28;20097;-63
2022/05/13 07:51:38;;;;;;;93.63;16.63;;;22.80;26.10;;;;;;5035701;28;20511;-64
2022/05/13 07:54:05;;;;;;;96.20;17.60;;;22.70;26.10;;;;;;5032977;28;20215;-64
2022/05/13 07:56:31;;;;;;;78.15;17.77;;;22.60;25.90;;;;;;5033505;28;20162;-65
2022/05/13 07:59:00;;;;;;;73.32;16.55;;;22.50;25.80;;;;;;5030472;28;20515;-65
2022/05/13 08:01:27;;;;;;;87.40;19.02;;;22.30;25.20;;;;;;5032984;28;20096;-63
2022/05/13 08:03:53;;;;;;;80.47;18.77;;;22.10;25.10;;;;;;5033519;28;20076;-64
2022/05/13 08:06:20;;;;;;;94.03;18.48;;;22.20;25.40;;;;;;5032196;28;20088;-65
2022/05/13 08:08:53;;;;;;;81.90;18.80;;;22.30;25.50;;;;;;5032722;28;20085;-63
2022/05/13 08:11:19;;;;;;;91.95;18.80;;;22.10;25.30;;;;;;5036494;28;20084;-63
2022/05/13 08:13:46;;;;;;;89.28;18.50;;;22.00;25.40;;;;;;5031581;28;20069;-63
2022/05/13 08:16:16;;;;;;;93.40;17.83;;;21.90;25.60;;;;;;5033275;28;20442;-65
2022/05/13 08:18:43;;;;;;;81.32;17.83;;;21.80;25.70;;;;;;5033400;28;20858;-64
2022/05/13 08:21:10;;;;;;;75.45;16.70;;;21.80;25.80;;;;;;5035496;28;20079;-65
2022/05/13 08:23:37;;;;;;;71.75;17.45;;;21.70;25.70;;;;;;5037361;28;20073;-64
2022/05/13 08:26:04;;;;;;;75.40;18.42;;;21.60;25.90;;;;;;5032341;28;20077;-65
2022/05/13 08:28:32;;;;;;;71.90;16.75;;;21.40;26.00;;;;;;5033652;28;20088;-63
2022/05/13 08:30:59;;;;;;;77.35;16.25;;;21.20;26.40;;;;;;5033432;28;20076;-62
2022/05/13 08:33:26;;;;;;;70.78;17.23;;;21.30;26.50;;;;;;5035065;28;20151;-63
2022/05/13 08:35:58;;;;;;;73.32;16.48;;;21.20;26.40;;;;;;5029625;28;20069;-66
2022/05/13 08:38:27;;;;;;;80.30;16.17;;;21.20;26.50;;;;;;5032411;28;20127;-63
2022/05/13 08:41:09;;;;;;;73.10;17.20;;;21.10;26.50;;;;;;5033436;28;20181;-64
2022/05/13 08:43:50;;;;;;;71.38;17.38;;;21.10;26.80;;;;;;5034320;28;20080;-65
2022/05/13 08:46:38;;;;;;;78.13;16.27;;;21.20;26.80;;;;;;5030306;28;20460;-65
2022/05/13 08:49:46;;;;;;;79.07;17.50;;;21.30;26.90;;;;;;5044065;28;20124;-65
2022/05/13 08:55:30;;;;;;;59.03;16.35;;;21.10;27.00;;;;;;4948904;29;20555;-64
2022/05/13 08:58:01;;;;;;;83.88;17.67;;;21.10;27.20;;;;;;4949108;29;20099;-64
2022/05/13 09:00:39;;;;;;;72.78;16.10;;;20.90;27.20;;;;;;4947459;29;20078;-64
2022/05/13 09:03:36;;;;;;;84.38;16.45;;;20.90;27.30;;;;;;4948732;29;20472;-63
2022/05/13 09:06:13;;;;;;;61.77;16.07;;;20.80;27.30;;;;;;4948573;29;20094;-64
2022/05/13 09:08:39;;;;;;;59.75;14.88;;;20.90;27.30;;;;;;4948345;29;20110;-63
2022/05/13 09:11:26;;;;;;;69.03;16.38;;;20.80;27.30;;;;;;4933584;29;20122;-64
2022/05/13 09:13:56;;;;;;;61.50;14.50;;;20.80;27.20;;;;;;4947763;29;20104;-64
2022/05/13 09:16:34;;;;;;;67.80;15.70;;;20.70;27.10;;;;;;4948776;29;20079;-65
2022/05/13 09:19:04;;;;;;;53.97;15.27;;;20.50;27.00;;;;;;4948494;29;20516;-64
2022/05/13 09:21:31;;;;;;;57.42;14.63;;;20.50;27.20;;;;;;4948258;29;20078;-64
2022/05/13 09:23:57;;;;;;;54.58;14.98;;;20.50;27.40;;;;;;4948479;29;21014;-65
2022/05/13 09:26:29;;;;;;;51.30;14.15;;;20.30;27.40;;;;;;4948857;29;20160;-65
2022/05/13 09:29:05;;;;;;;53.25;12.52;;;20.30;27.10;;;;;;4986617;28;20196;-65
2022/05/13 09:31:34;;;;;;;44.25;12.48;;;20.20;26.80;;;;;;4998981;28;20076;-66
2022/05/13 09:34:00;;;;;;;41.70;11.93;;;20.20;26.30;;;;;;5035165;28;20095;-64
2022/05/13 09:36:26;;;;;;;51.83;11.13;;;20.20;26.00;;;;;;5036771;28;20122;-61
2022/05/13 09:38:56;;;;;;;46.35;10.43;;;20.20;25.70;;;;;;5036153;28;20072;-64
2022/05/13 09:41:35;;;;;;;31.95;9.73;;;20.20;25.50;;;;;;5038392;28;20560;-65
2022/05/13 09:44:10;;;;;;;35.92;7.85;;;20.30;25.10;;;;;;5035439;28;20446;-63
2022/05/13 09:46:38;;;;;;;31.00;7.20;;;20.30;24.10;;;;;;5058813;28;20076;-65
2022/05/13 09:49:12;;;;;;;37.25;7.80;;;20.40;23.30;;;;;;5036605;28;20097;-65
2022/05/13 09:51:59;;;;;;;34.15;7.22;;;20.50;23.20;;;;;;5035476;28;20068;-64
2022/05/13 09:54:31;;;;;;;28.42;7.18;;;20.50;22.70;;;;;;5053407;28;20072;-64
2022/05/13 09:57:11;;;;;;;36.05;8.40;;;20.50;22.30;;;;;;5037865;28;20163;-63
2022/05/13 09:59:53;;;;;;;32.22;6.90;;;20.50;21.90;;;;;;5035216;28;20481;-63
2022/05/13 10:02:22;;;;;;;40.10;6.20;;;20.50;21.30;;;;;;5033235;28;20077;-65
2022/05/13 10:04:55;;;;;;;24.25;5.30;;;20.60;21.00;;;;;;5036117;28;20076;-64
2022/05/13 10:07:24;;;;;;;24.25;5.30;;;20.70;20.80;;;;;;5036831;28;20069;-64
2022/05/13 10:15:42;;;;;;;19.08;3.55;;;20.70;19.90;;;;;;5024737;28;20084;-65
2022/05/13 10:18:23;;;;;;;21.60;4.30;;;20.70;19.70;;;;;;5038218;28;20077;-64
2022/05/13 10:20:53;;;;;;;16.63;3.58;;;20.80;19.70;;;;;;5035389;28;20192;-64
2022/05/13 10:23:29;;;;;;;22.48;3.50;;;20.80;19.60;;;;;;5033930;28;20073;-65
2022/05/13 10:25:59;;;;;;;19.33;3.63;;;20.80;19.60;;;;;;5034907;28;20250;-65
2022/05/13 10:29:17;;;;;;;12.88;3.30;;;20.80;19.80;;;;;;5036655;28;20068;-64
2022/05/13 10:31:46;;;;;;;10.95;3.45;;;20.80;20.00;;;;;;5031708;28;20089;-64
2022/05/13 10:34:35;;;;;;;21.48;3.20;;;20.70;20.20;;;;;;5034967;28;20713;-64
2022/05/13 10:37:09;;;;;;;14.00;2.97;;;20.50;20.20;;;;;;5036739;28;20072;-64
2022/05/13 10:39:51;;;;;;;14.90;3.47;;;20.50;20.00;;;;;;5028826;28;20077;-66
2022/05/13 10:42:29;;;;;;;17.58;3.15;;;20.50;20.10;;;;;;5040019;28;20076;-65
2022/05/13 10:45:08;;;;;;;13.50;2.90;;;20.50;20.40;;;;;;5033994;28;20489;-64
2022/05/13 10:47:45;;;;;;;13.65;2.95;;;20.50;21.00;;;;;;5034659;28;20077;-65
2022/05/13 10:50:20;;;;;;;9.38;3.03;;;20.50;21.20;;;;;;5034936;28;20092;-64
2022/05/13 10:53:05;;;;;;;17.45;3.30;;;20.40;21.10;;;;;;5036078;28;20736;-64
2022/05/13 10:55:54;;;;;;;13.30;3.50;;;20.30;21.50;;;;;;5038899;28;20076;-67
2022/05/13 10:58:26;;;;;;;19.15;3.15;;;20.30;21.30;;;;;;5034482;28;20191;-64
2022/05/13 11:01:17;;;;;;;18.73;4.18;;;19.90;21.50;;;;;;5040846;28;20072;-66
2022/05/13 11:04:15;;;;;;;13.25;4.18;;;19.70;21.90;;;;;;5033594;28;20131;-64
2022/05/13 11:06:50;;;;;;;18.38;4.38;;;19.70;21.80;;;;;;5050391;28;20126;-64
2022/05/13 11:09:29;;;;;;;17.17;4.05;;;19.70;21.60;;;;;;5035904;28;20143;-64
2022/05/13 11:12:22;;;;;;;14.95;3.55;;;19.80;21.50;;;;;;5035127;28;20065;-66
2022/05/13 11:15:04;;;;;;;22.83;3.78;;;19.80;21.50;;;;;;5034242;28;20069;-64
2022/05/13 11:17:52;;;;;;;20.48;3.75;;;19.70;21.70;;;;;;5036074;28;20101;-64
2022/05/13 11:20:46;;;;;;;14.70;3.28;;;19.60;21.80;;;;;;5035487;28;20122;-66
2022/05/13 11:23:38;;;;;;;21.15;4.15;;;19.60;22.10;;;;;;5035896;28;20188;-67
2022/05/13 11:26:28;;;;;;;14.88;3.67;;;19.60;22.40;;;;;;5037912;28;20089;-65
2022/05/13 11:29:05;;;;;;;19.15;3.97;;;19.50;22.20;;;;;;5034765;28;20116;-67
2022/05/13 11:31:47;;;;;;;13.15;3.22;;;19.40;22.00;;;;;;5033891;28;20167;-65
2022/05/13 11:34:28;;;;;;;15.90;3.35;;;19.40;21.80;;;;;;5033828;28;20115;-65
2022/05/13 11:37:02;;;;;;;12.07;3.10;;;19.50;21.90;;;;;;5039902;28;20076;-63
2022/05/13 11:40:03;;;;;;;15.77;4.63;;;19.50;21.80;;;;;;5034546;28;20499;-64
2022/05/13 11:45:57;;;;;;;19.02;3.92;;;19.50;21.80;;;;;;5034957;28;20175;-65
2022/05/13 11:48:29;;;;;;;19.05;5.38;;;19.50;22.00;;;;;;5035283;28;20650;-66
2022/05/13 11:51:17;;;;;;;19.58;4.78;;;19.40;22.00;;;;;;5035755;28;20136;-65
2022/05/13 11:54:10;;;;;;;22.73;4.93;;;19.30;22.20;;;;;;5033355;28;20072;-65
2022/05/13 11:56:38;;;;;;;28.63;6.03;;;19.40;22.70;;;;;;5037453;28;20473;-64
2022/05/13 11:59:29;;;;;;;21.75;5.50;;;19.20;22.50;;;;;;5031952;28;20581;-64
2022/05/13 12:02:06;;;;;;;19.20;5.40;;;19.10;22.80;;;;;;5034722;28;20077;-64
2022/05/13 12:04:36;;;;;;;32.78;6.25;;;19.10;23.00;;;;;;5033354;28;20612;-66
2022/05/13 12:07:28;;;;;;;30.30;5.57;;;19.00;22.70;;;;;;5033645;28;20073;-65
2022/05/13 12:09:58;;;;;;;18.73;4.82;;;19.10;22.50;;;;;;5034615;28;20100;-66
2022/05/13 12:12:40;;;;;;;24.50;5.32;;;19.00;22.60;;;;;;5037613;28;20115;-65
2022/05/13 12:15:44;;;;;;;29.50;5.07;;;19.10;23.00;;;;;;5035729;28;20497;-64
2022/05/13 12:18:25;;;;;;;23.75;5.68;;;19.00;22.40;;;;;;5005916;28;20115;-65
2022/05/13 12:21:15;;;;;;;28.40;5.63;;;19.00;22.30;;;;;;4991618;28;20575;-64
2022/05/13 12:23:56;;;;;;;30.35;5.20;;;19.00;22.40;;;;;;5007084;28;20575;-64
2022/05/13 12:26:44;;;;;;;27.63;5.50;;;19.00;22.40;;;;;;4990872;28;20081;-64
2022/05/13 12:29:17;;;;;;;22.27;4.53;;;19.00;22.40;;;;;;4990542;28;20217;-64
2022/05/13 12:32:09;;;;;;;21.35;4.18;;;19.00;22.50;;;;;;4991439;28;20070;-64
2022/05/13 12:37:34;;;;;;;29.45;4.05;;;19.10;22.60;;;;;;5007354;28;20127;-65
2022/05/13 12:40:00;;;;;;;;;;;19.10;22.90;;;;;;5007613;28;20179;-64
2022/05/13 12:42:48;;;;;;;19.13;3.40;;;19.10;22.80;;;;;;4990787;28;20072;-64
2022/05/13 12:45:40;;;;;;;24.67;3.92;;;19.10;23.00;;;;;;4989601;28;20155;-67
2022/05/13 12:48:09;;;;;;;25.50;4.25;;;19.10;23.00;;;;;;4990591;28;20088;-68
2022/05/13 12:50:41;;;;;;;27.38;5.07;;;19.10;23.10;;;;;;4990519;28;20085;-66
2022/05/13 12:53:29;;;;;;;33.83;4.85;;;19.10;23.10;;;;;;5026382;28;20103;-65
2022/05/13 12:56:19;;;;;;;29.33;5.70;;;19.20;24.00;;;;;;5035033;28;20069;-65
2022/05/13 12:59:01;;;;;;;28.13;5.53;;;19.10;24.00;;;;;;5034750;28;20083;-64
2022/05/13 13:01:30;;;;;;;25.35;5.00;;;19.00;23.70;;;;;;5015110;28;20087;-66
2022/05/13 13:03:58;;;;;;;28.50;4.97;;;18.90;24.20;;;;;;5033151;28;20152;-67
2022/05/13 13:06:26;;;;;;;34.78;5.15;;;19.00;23.90;;;;;;5040895;28;20077;-64
2022/05/13 13:08:53;;;;;;;31.08;4.75;;;18.90;24.10;;;;;;5031789;28;20103;-63
2022/05/13 13:11:37;;;;;;;25.38;5.00;;;19.00;24.30;;;;;;5034475;28;20073;-65
2022/05/13 13:14:24;;;;;;;22.98;4.75;;;19.00;24.30;;;;;;5032670;28;20065;-67
2022/05/13 13:17:03;;;;;;;23.85;4.32;;;19.00;24.60;;;;;;5055362;28;20099;-64
2022/05/13 13:19:35;;;;;;;31.92;4.28;;;19.10;24.90;;;;;;5038339;28;20104;-64
2022/05/13 13:22:08;;;;;;;28.63;3.80;;;19.20;24.90;;;;;;5036719;28;20092;-64
2022/05/13 13:24:38;;;;;;;19.58;3.03;;;19.20;25.40;;;;;;5030422;28;20179;-64
2022/05/13 13:27:16;;;;;;;12.65;3.50;;;19.20;25.30;;;;;;5031848;28;20081;-64
2022/05/13 13:29:44;;;;;;;20.45;2.92;;;19.30;25.50;;;;;;5034204;28;20104;-65